createdAt,value
2023-04-16T00:01:51.169Z,96709.59
2023-04-16T00:04:40.373Z,96715.72
2023-04-16T00:07:28.878Z,96711.47
2023-04-16T00:10:17.505Z,96706.13
2023-04-16T00:13:05.887Z,96704.22
2023-04-16T00:15:54.396Z,96713.13
2023-04-16T00:18:44.185Z,96714.41
2023-04-16T00:21:32.569Z,96712.38
2023-04-16T00:24:20.940Z,96718.50
2023-04-16T00:27:09.350Z,96715.06
2023-04-16T00:29:57.703Z,96714.00
2023-04-16T00:32:46.174Z,96720.94
2023-04-16T00:35:36.013Z,96716.16
2023-04-16T00:38:24.371Z,96719.91
2023-04-16T00:41:12.969Z,96717.22
2023-04-16T00:44:01.355Z,96715.06
2023-04-16T00:46:50.022Z,96719.34
2023-04-16T00:49:38.395Z,96726.84
2023-04-16T00:52:28.756Z,96725.47
2023-04-16T00:55:18.985Z,96727.59
2023-04-16T00:58:07.800Z,96719.66
2023-04-16T01:00:56.771Z,96730.59
2023-04-16T01:03:47.215Z,96732.97
2023-04-16T01:06:36.287Z,96724.19
2023-04-16T01:09:26.297Z,96731.88
2023-04-16T01:12:14.764Z,96733.22
2023-04-16T01:15:03.259Z,96736.75
2023-04-16T01:17:52.193Z,96736.44
2023-04-16T01:20:41.908Z,96731.66
2023-04-16T01:23:30.374Z,96739.69
2023-04-16T01:26:18.737Z,96740.25
2023-04-16T01:29:07.238Z,96751.97
2023-04-16T01:31:55.902Z,96747.72
2023-04-16T01:34:49.404Z,96746.16
2023-04-16T01:37:39.197Z,96745.59
2023-04-16T01:40:27.558Z,96741.88
2023-04-16T01:43:16.054Z,96747.72
2023-04-16T01:46:15.069Z,96751.50
2023-04-16T01:49:03.812Z,96746.94
2023-04-16T01:51:53.056Z,96754.94
2023-04-16T01:54:42.831Z,96749.28
2023-04-16T01:57:31.370Z,96754.13
2023-04-16T02:00:19.820Z,96756.31
2023-04-16T02:03:08.337Z,96750.69
2023-04-16T02:05:56.828Z,96756.78
2023-04-16T02:08:45.222Z,96751.44
2023-04-16T02:11:36.519Z,96750.38
2023-04-16T02:14:25.689Z,96753.06
2023-04-16T02:17:15.318Z,96755.13
2023-04-16T02:20:07.966Z,96754.13
2023-04-16T02:22:58.641Z,96759.50
2023-04-16T02:25:48.692Z,96759.97
2023-04-16T02:28:39.145Z,96764.28
2023-04-16T02:31:28.906Z,96757.09
2023-04-16T02:34:18.795Z,96761.09
2023-04-16T02:37:07.400Z,96766.13
2023-04-16T02:39:56.222Z,96761.34
2023-04-16T02:42:44.576Z,96753.63
2023-04-16T02:45:34.632Z,96768.81
2023-04-16T02:48:23.014Z,96763.22
2023-04-16T02:51:11.336Z,96766.94
2023-04-16T02:53:59.754Z,96784.00
2023-04-16T02:56:48.112Z,96777.63
2023-04-16T02:59:36.456Z,96774.94
2023-04-16T03:02:26.606Z,96778.69
2023-04-16T03:05:15.077Z,96778.97
2023-04-16T03:08:04.634Z,96772.28
2023-04-16T03:10:53.044Z,96773.38
2023-04-16T03:13:41.439Z,96773.34
2023-04-16T03:16:29.804Z,96779.75
2023-04-16T03:19:19.567Z,96784.53
2023-04-16T03:22:07.912Z,96787.50
2023-04-16T03:24:56.349Z,96789.91
2023-04-16T03:27:45.346Z,96794.94
2023-04-16T03:30:34.839Z,96790.16
2023-04-16T03:33:23.504Z,96796.00
2023-04-16T03:36:15.005Z,96786.69
2023-04-16T03:39:03.438Z,96793.31
2023-04-16T03:41:52.192Z,96795.75
2023-04-16T03:44:40.609Z,96786.94
2023-04-16T03:47:30.665Z,96788.31
2023-04-16T03:50:22.950Z,96788.78
2023-04-16T03:53:12.762Z,96791.22
2023-04-16T03:56:01.685Z,96793.06
2023-04-16T03:58:51.272Z,96795.25
2023-04-16T04:01:40.644Z,96801.63
2023-04-16T04:04:29.144Z,96795.47
2023-04-16T04:07:19.344Z,96806.69
2023-04-16T04:10:10.731Z,96804.25
2023-04-16T04:13:02.583Z,96804.28
2023-04-16T04:15:51.189Z,96812.81
2023-04-16T04:18:39.556Z,96809.59
2023-04-16T04:21:28.415Z,96816.78
2023-04-16T04:24:16.808Z,96810.66
2023-04-16T04:27:06.861Z,96815.72
2023-04-16T04:29:55.265Z,96811.22
2023-04-16T04:32:44.152Z,96820.81
2023-04-16T04:35:32.677Z,96826.41
2023-04-16T04:38:22.371Z,96829.56
2023-04-16T04:41:11.782Z,96840.25
2023-04-16T04:44:02.144Z,96838.38
2023-04-16T04:46:50.655Z,96844.53
2023-04-16T04:49:41.093Z,96847.97
2023-04-16T04:52:29.808Z,96849.88
2023-04-16T04:55:18.287Z,96852.75
2023-04-16T04:58:07.446Z,96848.50
2023-04-16T05:00:57.506Z,96859.19
2023-04-16T05:03:45.924Z,96868.72
2023-04-16T05:06:34.389Z,96864.47
2023-04-16T05:09:22.754Z,96871.91
2023-04-16T05:12:11.101Z,96865.25
2023-04-16T05:14:59.443Z,96879.94
2023-04-16T05:17:49.218Z,96875.66
2023-04-16T05:20:38.007Z,96886.53
2023-04-16T05:23:26.401Z,96885.78
2023-04-16T05:26:14.775Z,96892.75
2023-04-16T05:29:03.173Z,96882.59
2023-04-16T05:31:51.739Z,96880.19
2023-04-16T05:34:41.540Z,96888.47
2023-04-16T05:37:29.884Z,96890.06
2023-04-16T05:40:18.450Z,96893.28
2023-04-16T05:43:06.774Z,96890.09
2023-04-16T05:45:55.432Z,96891.97
2023-04-16T05:48:43.842Z,96893.84
2023-04-16T05:51:33.567Z,96898.34
2023-04-16T05:54:21.958Z,96899.13
2023-04-16T05:57:10.284Z,96898.09
2023-04-16T05:59:58.664Z,96901.00
2023-04-16T06:02:47.252Z,96911.66
2023-04-16T06:05:35.941Z,96906.09
2023-04-16T06:08:25.697Z,96907.94
2023-04-16T06:11:14.106Z,96903.69
2023-04-16T06:14:02.421Z,96901.78
2023-04-16T06:16:51.048Z,96905.25
2023-04-16T06:19:39.496Z,96905.00
2023-04-16T06:22:27.910Z,96911.38
2023-04-16T06:25:18.317Z,96904.69
2023-04-16T06:28:07.031Z,96910.25
2023-04-16T06:30:55.602Z,96908.09
2023-04-16T06:33:43.919Z,96910.50
2023-04-16T06:36:32.274Z,96919.00
2023-04-16T06:39:21.788Z,96918.75
2023-04-16T06:42:11.538Z,96919.06
2023-04-16T06:45:00.678Z,96919.88
2023-04-16T06:47:49.764Z,96927.34
2023-04-16T06:50:38.328Z,96924.66
2023-04-16T06:53:26.812Z,96923.56
2023-04-16T06:56:15.154Z,96928.13
2023-04-16T06:59:04.988Z,96935.31
2023-04-16T07:01:53.709Z,96936.34
2023-04-16T07:04:42.122Z,96931.84
2023-04-16T07:07:31.015Z,96929.97
2023-04-16T07:10:19.423Z,96931.00
2023-04-16T07:13:07.950Z,96934.25
2023-04-16T07:15:57.713Z,96934.22
2023-04-16T07:18:46.083Z,96929.59
2023-04-16T07:21:34.474Z,96929.28
2023-04-16T07:24:22.826Z,96935.13
2023-04-16T07:27:11.717Z,96933.56
2023-04-16T07:30:00.041Z,96938.94
2023-04-16T07:32:49.861Z,96940.50
2023-04-16T07:35:38.326Z,96933.03
2023-04-16T07:38:26.691Z,96932.13
2023-04-16T07:41:16.604Z,96933.50
2023-04-16T07:44:05.296Z,96932.38
2023-04-16T07:46:53.855Z,96947.34
2023-04-16T07:49:44.138Z,96945.22
2023-04-16T07:52:32.552Z,96944.13
2023-04-16T07:55:21.007Z,96945.16
2023-04-16T07:58:09.656Z,96947.25
2023-04-16T08:00:58.051Z,96945.03
2023-04-16T08:03:46.701Z,96951.28
2023-04-16T08:06:36.587Z,96953.88
2023-04-16T08:09:27.554Z,96951.59
2023-04-16T08:12:16.330Z,96957.47
2023-04-16T08:15:05.118Z,96956.88
2023-04-16T08:17:54.017Z,96964.84
2023-04-16T08:20:42.592Z,96961.97
2023-04-16T08:23:32.303Z,96980.97
2023-04-16T08:26:20.756Z,96974.06
2023-04-16T08:29:09.376Z,96968.22
2023-04-16T08:31:58.092Z,96978.91
2023-04-16T08:35:11.318Z,96987.44
2023-04-16T08:38:02.167Z,96991.25
2023-04-16T08:40:52.152Z,96990.44
2023-04-16T08:43:44.463Z,96998.16
2023-04-16T08:46:33.018Z,97007.81
2023-04-16T08:49:21.366Z,96998.72
2023-04-16T08:52:11.515Z,97000.28
2023-04-16T08:55:06.359Z,97010.88
2023-04-16T08:57:59.587Z,97007.34
2023-04-16T09:00:48.766Z,97014.47
2023-04-16T09:03:37.701Z,97010.72
2023-04-16T09:06:26.427Z,97012.31
2023-04-16T09:09:16.038Z,97010.16
2023-04-16T09:12:04.897Z,97016.34
2023-04-16T09:14:54.808Z,97011.00
2023-04-16T09:17:43.226Z,97008.84
2023-04-16T09:20:31.616Z,97023.56
2023-04-16T09:23:20.027Z,97018.22
2023-04-16T09:26:08.481Z,97017.09
2023-04-16T09:28:56.980Z,97021.16
2023-04-16T09:32:03.086Z,97020.84
2023-04-16T09:35:01.898Z,97020.50
2023-04-16T09:37:57.021Z,97025.84
2023-04-16T09:40:47.441Z,97016.94
2023-04-16T09:43:36.478Z,97021.38
2023-04-16T09:46:25.786Z,97022.19
2023-04-16T09:49:17.186Z,97023.53
2023-04-16T09:52:10.679Z,97020.88
2023-04-16T09:54:59.047Z,97023.59
2023-04-16T09:57:48.700Z,97023.53
2023-04-16T10:00:43.524Z,97021.59
2023-04-16T10:03:32.824Z,97024.41
2023-04-16T10:06:25.462Z,97028.34
2023-04-16T10:09:13.805Z,97025.91
2023-04-16T10:12:02.207Z,97027.19
2023-04-16T10:14:50.744Z,97025.69
2023-04-16T10:17:39.807Z,97030.84
2023-04-16T10:20:28.237Z,97034.41
2023-04-16T10:23:18.116Z,97038.22
2023-04-16T10:26:06.995Z,97033.66
2023-04-16T10:28:56.098Z,97032.72
2023-04-16T10:31:44.496Z,97037.06
2023-04-16T10:34:33.008Z,97038.06
2023-04-16T10:37:21.411Z,97044.97
2023-04-16T10:40:25.443Z,97034.09
2023-04-16T10:43:18.975Z,97040.91
2023-04-16T10:46:21.264Z,97039.50
2023-04-16T10:49:17.746Z,97047.06
2023-04-16T10:52:12.051Z,97037.59
2023-04-16T10:55:00.940Z,97050.41
2023-04-16T10:57:53.945Z,97040.53
2023-04-16T11:00:50.863Z,97048.31
2023-04-16T11:03:42.871Z,97050.34
2023-04-16T11:06:32.110Z,97048.50
2023-04-16T11:09:48.360Z,97044.53
2023-04-16T11:12:38.502Z,97053.19
2023-04-16T11:15:30.948Z,97045.75
2023-04-16T11:18:20.600Z,97053.44
2023-04-16T11:21:13.575Z,97052.88
2023-04-16T11:24:01.948Z,97056.47
2023-04-16T11:26:52.596Z,97049.31
2023-04-16T11:29:41.512Z,97059.59
2023-04-16T11:32:34.316Z,97051.34
2023-04-16T11:35:22.885Z,97052.00
2023-04-16T11:38:11.239Z,97053.00
2023-04-16T11:40:59.571Z,97055.59
2023-04-16T11:43:47.989Z,97055.22
2023-04-16T11:46:40.656Z,97063.53
2023-04-16T11:49:31.054Z,97059.75
2023-04-16T11:52:29.883Z,97062.50
2023-04-16T11:55:18.572Z,97056.94
2023-04-16T11:58:12.835Z,97054.44
2023-04-16T12:01:01.817Z,97063.22
2023-04-16T12:03:51.464Z,97065.91
2023-04-16T12:06:41.671Z,97067.19
2023-04-16T12:09:30.052Z,97063.78
2023-04-16T12:12:30.865Z,97064.31
2023-04-16T12:15:19.924Z,97070.56
2023-04-16T12:18:09.569Z,97067.28
2023-04-16T12:20:58.231Z,97076.56
2023-04-16T12:23:47.975Z,97069.78
2023-04-16T12:26:41.216Z,97065.72
2023-04-16T12:29:29.680Z,97065.78
2023-04-16T12:32:24.215Z,97068.50
2023-04-16T12:35:13.317Z,97070.41
2023-04-16T12:38:03.518Z,97069.41
2023-04-16T12:40:56.633Z,97071.00
2023-04-16T12:44:12.040Z,97063.19
2023-04-16T12:47:00.375Z,97077.66
2023-04-16T12:49:48.739Z,97079.16
2023-04-16T12:52:37.224Z,97072.28
2023-04-16T12:55:25.719Z,97076.84
2023-04-16T12:58:15.426Z,97078.47
2023-04-16T13:01:03.754Z,97075.38
2023-04-16T13:03:52.423Z,97074.16
2023-04-16T13:06:42.406Z,97067.47
2023-04-16T13:09:30.901Z,97072.16
2023-04-16T13:12:19.366Z,97068.00
2023-04-16T13:15:10.805Z,97064.16
2023-04-16T13:17:59.185Z,97065.88
2023-04-16T13:20:47.533Z,97060.84
2023-04-16T13:23:36.283Z,97071.69
2023-04-16T13:26:24.640Z,97065.31
2023-04-16T13:29:12.984Z,97060.16
2023-04-16T13:32:02.689Z,97063.50
2023-04-16T13:34:51.073Z,97065.25
2023-04-16T13:37:39.546Z,97069.97
2023-04-16T13:40:27.945Z,97068.16
2023-04-16T13:43:18.936Z,97069.47
2023-04-16T13:46:07.519Z,97062.63
2023-04-16T13:48:57.435Z,97070.47
2023-04-16T13:51:45.795Z,97067.00
2023-04-16T13:54:34.297Z,97067.78
2023-04-16T13:57:22.757Z,97067.19
2023-04-16T14:00:13.238Z,97067.47
2023-04-16T14:03:01.916Z,97071.97
2023-04-16T14:05:51.765Z,97063.59
2023-04-16T14:08:40.147Z,97068.78
2023-04-16T14:11:28.536Z,97071.97
2023-04-16T14:14:16.922Z,97073.97
2023-04-16T14:17:05.354Z,97071.75
2023-04-16T14:19:53.744Z,97073.34
2023-04-16T14:22:44.231Z,97065.66
2023-04-16T14:25:32.647Z,97074.94
2023-04-16T14:28:21.422Z,97067.16
2023-04-16T14:31:09.857Z,97072.47
2023-04-16T14:33:58.304Z,97074.72
2023-04-16T14:36:46.944Z,97069.19
2023-04-16T14:39:39.108Z,97078.31
2023-04-16T14:42:27.825Z,97080.09
2023-04-16T14:45:16.238Z,97070.56
2023-04-16T14:48:05.159Z,97074.25
2023-04-16T14:50:54.888Z,97072.88
2023-04-16T14:53:43.256Z,97074.56
2023-04-16T14:56:33.038Z,97077.75
2023-04-16T14:59:21.386Z,97077.16
2023-04-16T15:02:10.466Z,97079.97
2023-04-16T15:04:58.909Z,97077.94
2023-04-16T15:07:47.421Z,97079.47
2023-04-16T15:10:36.107Z,97070.41
2023-04-16T15:13:25.931Z,97070.97
2023-04-16T15:16:14.336Z,97071.59
2023-04-16T15:19:05.011Z,97071.66
2023-04-16T15:21:53.691Z,97069.69
2023-04-16T15:24:42.159Z,97074.47
2023-04-16T15:27:30.591Z,97065.88
2023-04-16T15:30:20.682Z,97069.91
2023-04-16T15:33:09.417Z,97066.16
2023-04-16T15:35:57.851Z,97062.38
2023-04-16T15:38:46.141Z,97070.47
2023-04-16T15:41:36.926Z,97070.16
2023-04-16T15:44:25.444Z,97077.47
2023-04-16T15:47:15.383Z,97082.78
2023-04-16T15:50:03.807Z,97083.16
2023-04-16T15:52:52.248Z,97079.34
2023-04-16T15:55:40.699Z,97087.81
2023-04-16T15:58:29.039Z,97087.44
2023-04-16T16:01:18.018Z,97085.72
2023-04-16T16:04:08.204Z,97096.16
2023-04-16T16:06:57.485Z,97096.38
2023-04-16T16:09:47.355Z,97099.69
2023-04-16T16:12:35.783Z,97102.94
2023-04-16T16:15:24.289Z,97098.66
2023-04-16T16:18:12.625Z,97106.91
2023-04-16T16:21:02.330Z,97112.13
2023-04-16T16:23:50.750Z,97107.00
2023-04-16T16:26:39.135Z,97108.59
2023-04-16T16:29:27.593Z,97109.78
2023-04-16T16:32:16.448Z,97106.56
2023-04-16T16:35:05.706Z,97112.41
2023-04-16T16:37:57.283Z,97106.22
2023-04-16T16:40:45.641Z,97109.84
2023-04-16T16:43:34.098Z,97112.53
2023-04-16T16:46:22.479Z,97121.00
2023-04-16T16:49:11.206Z,97122.09
2023-04-16T16:52:00.167Z,97119.78
2023-04-16T16:54:50.013Z,97120.31
2023-04-16T16:57:38.910Z,97120.56
2023-04-16T17:00:27.636Z,97120.84
2023-04-16T17:03:17.094Z,97127.84
2023-04-16T17:06:06.222Z,97128.94
2023-04-16T17:08:54.572Z,97130.34
2023-04-16T17:11:44.392Z,97127.34
2023-04-16T17:14:33.386Z,97131.25
2023-04-16T17:17:21.752Z,97139.47
2023-04-16T17:20:12.328Z,97132.78
2023-04-16T17:23:00.876Z,97142.28
2023-04-16T17:25:49.282Z,97144.41
2023-04-16T17:28:39.067Z,97147.25
2023-04-16T17:31:27.853Z,97151.75
2023-04-16T17:34:19.579Z,97151.75
2023-04-16T17:37:08.015Z,97157.38
2023-04-16T17:39:56.888Z,97155.66
2023-04-16T17:42:46.223Z,97153.56
2023-04-16T17:45:36.142Z,97164.72
2023-04-16T17:48:24.492Z,97159.63
2023-04-16T17:51:13.419Z,97166.38
2023-04-16T17:54:03.386Z,97165.00
2023-04-16T17:56:51.763Z,97175.91
2023-04-16T17:59:40.190Z,97177.28
2023-04-16T18:02:30.117Z,97167.63
2023-04-16T18:05:19.029Z,97171.91
2023-04-16T18:08:07.433Z,97182.16
2023-04-16T18:10:56.788Z,97184.34
2023-04-16T18:13:45.349Z,97183.69
2023-04-16T18:16:33.752Z,97185.91
2023-04-16T18:19:23.505Z,97189.41
2023-04-16T18:22:13.353Z,97189.84
2023-04-16T18:25:01.736Z,97194.97
2023-04-16T18:27:50.108Z,97193.75
2023-04-16T18:30:40.489Z,97201.41
2023-04-16T18:33:52.589Z,97194.63
2023-04-16T18:36:38.793Z,97197.84
2023-04-16T18:39:27.268Z,97204.59
2023-04-16T18:42:15.832Z,97207.13
2023-04-16T18:45:05.906Z,97212.66
2023-04-16T18:47:54.284Z,97212.66
2023-04-16T18:50:42.726Z,97224.19
2023-04-16T18:53:32.634Z,97221.31
2023-04-16T18:56:21.070Z,97228.53
2023-04-16T18:59:09.664Z,97220.13
2023-04-16T19:01:58.326Z,97228.31
2023-04-16T19:04:46.944Z,97225.41
2023-04-16T19:07:36.158Z,97231.31
2023-04-16T19:10:25.896Z,97236.13
2023-04-16T19:13:14.254Z,97233.34
2023-04-16T19:16:04.999Z,97239.66
2023-04-16T19:18:53.376Z,97241.88
2023-04-16T19:21:41.706Z,97242.38
2023-04-16T19:24:30.877Z,97240.84
2023-04-16T19:27:21.582Z,97237.59
2023-04-16T19:30:10.924Z,97241.56
2023-04-16T19:32:59.347Z,97240.78
2023-04-16T19:35:48.110Z,97238.16
2023-04-16T19:38:36.444Z,97241.38
2023-04-16T19:41:24.890Z,97245.81
2023-04-16T19:44:14.582Z,97243.94
2023-04-16T19:47:02.956Z,97246.25
2023-04-16T19:49:54.054Z,97250.44
2023-04-16T19:52:42.387Z,97246.09
2023-04-16T19:55:30.705Z,97247.16
2023-04-16T19:58:19.096Z,97247.13
2023-04-16T20:01:11.302Z,97245.50
2023-04-16T20:03:59.709Z,97251.13
2023-04-16T20:06:48.106Z,97255.72
2023-04-16T20:09:36.482Z,97254.44
2023-04-16T20:12:24.894Z,97249.88
2023-04-16T20:15:13.351Z,97252.06
2023-04-16T20:18:03.137Z,97254.25
2023-04-16T20:20:51.682Z,97253.16
2023-04-16T20:23:40.033Z,97258.53
2023-04-16T20:26:33.544Z,97258.56
2023-04-16T20:29:21.937Z,97254.97
2023-04-16T20:32:10.309Z,97255.25
2023-04-16T20:35:00.488Z,97254.44
2023-04-16T20:37:48.933Z,97262.47
2023-04-16T20:40:38.761Z,97263.28
2023-04-16T20:43:29.568Z,97255.47
2023-04-16T20:46:18.458Z,97249.88
2023-04-16T20:49:08.237Z,97259.78
2023-04-16T20:51:57.996Z,97255.25
2023-04-16T20:54:47.202Z,97258.25
2023-04-16T20:57:35.529Z,97251.31
2023-04-16T21:00:24.162Z,97249.50
2023-04-16T21:03:12.646Z,97255.16
2023-04-16T21:06:01.822Z,97246.66
2023-04-16T21:08:51.544Z,97247.72
2023-04-16T21:11:39.978Z,97253.34
2023-04-16T21:14:28.333Z,97246.38
2023-04-16T21:17:16.679Z,97254.16
2023-04-16T21:20:06.930Z,97255.78
2023-04-16T21:22:56.910Z,97257.13
2023-04-16T21:25:46.593Z,97257.91
2023-04-16T21:28:34.950Z,97255.78
2023-04-16T21:31:23.378Z,97256.31
2023-04-16T21:34:11.782Z,97252.03
2023-04-16T21:37:00.139Z,97263.78
2023-04-16T21:39:48.559Z,97271.81
2023-04-16T21:42:39.986Z,97265.41
2023-04-16T21:45:30.437Z,97278.75
2023-04-16T21:48:18.956Z,97271.81
2023-04-16T21:51:08.155Z,97277.16
2023-04-16T21:53:56.991Z,97270.22
2023-04-16T21:56:45.366Z,97276.88
2023-04-16T21:59:35.096Z,97274.50
2023-04-16T22:02:23.534Z,97277.16
2023-04-16T22:05:12.571Z,97263.53
2023-04-16T22:08:05.800Z,97265.13
2023-04-16T22:11:00.048Z,97263.25
2023-04-16T22:13:49.507Z,97267.78
2023-04-16T22:16:40.153Z,97258.97
2023-04-16T22:19:28.692Z,97263.25
2023-04-16T22:22:17.032Z,97257.38
2023-04-16T22:25:06.101Z,97264.06
2023-04-16T22:27:54.463Z,97253.63
2023-04-16T22:30:42.881Z,97250.41
2023-04-16T22:33:32.661Z,97254.13
2023-04-16T22:36:21.036Z,97250.38
2023-04-16T22:39:09.676Z,97243.94
2023-04-16T22:41:58.465Z,97249.84
2023-04-16T22:44:46.853Z,97245.06
2023-04-16T22:47:35.407Z,97246.66
2023-04-16T22:50:25.201Z,97247.72
2023-04-16T22:53:13.603Z,97255.72
2023-04-16T22:56:01.966Z,97250.91
2023-04-16T22:58:50.390Z,97253.56
2023-04-16T23:01:38.905Z,97250.41
2023-04-16T23:04:27.458Z,97249.03
2023-04-16T23:07:17.589Z,97245.06
2023-04-16T23:10:08.337Z,97248.22
2023-04-16T23:12:56.833Z,97251.44
2023-04-16T23:15:47.222Z,97253.81
2023-04-16T23:18:36.671Z,97257.28
2023-04-16T23:21:25.066Z,97257.25
2023-04-16T23:24:14.847Z,97262.03
2023-04-16T23:27:03.462Z,97260.41
2023-04-16T23:29:51.823Z,97256.69
2023-04-16T23:32:40.318Z,97258.59
2023-04-16T23:35:28.783Z,97257.00
2023-04-16T23:38:17.242Z,97252.41
2023-04-16T23:41:06.980Z,97260.97
2023-04-16T23:43:55.320Z,97265.50
2023-04-16T23:46:43.713Z,97248.16
2023-04-16T23:49:32.197Z,97247.06
2023-04-16T23:52:20.664Z,97251.88
2023-04-16T23:55:09.639Z,97246.56
2023-04-16T23:57:59.338Z,97248.34
